Pagrindinis puslapis
METAR-TAF:

METAR-TAF

Oro uostai :

Edremit, Turkija

platuma: 39-33-16N, ilguma: 27-00-49E, Aukštis: 15 m

Dabartinis oras

Ataskaita buvo paskelbta 31 minutes, ne 18:50 UTC
Vėjas 11 kt iš Rytų, svyruoja nuo Rytų/Šiaurės Rytų ir Rytų/Pietryčių
Temperatūra 21°C
Drėgmė 60%
Slėgis 1020 hPa
Matomumas 10 km arba daugiau
Mažai debesys ne aukštis 3500 ft

METAR: LTFD 151850Z 10011KT 060V120 9999 FEW035 21/13 Q1020

Laikas: 22:21 (19:21 UTC)

Prognozė

Ataskaita buvo paskelbta 2 valandos ir 41 minutes, ne 16:40 UTC
Prognozė galioja nuo 15 metu 18 UTC su 16 metu 03 UTC
Vėjas 15 kt iš Rytų
Matomumas 10 km arba daugiau
nėra debesų žemiau 1500 m ir nėra kamuolinių lietaus debesų

TAF: LTFD 151640Z 1518/1603 08015KT CAVOK

Orai ataskaitas ir orų prognozės (METAR, TAF).

turimą stotys yra geltonos ir raudonos taškus žemėlapyje.

Perkelti pele per norėdami pamatyti stoties vardą.

Tada spustelėkite, norėdami matyti oro stebėjimo ir prognozės.

Norėdami pakeisti žemėlapį: spustelėkite ant žalios mygtukų su juodo kryžiaus žemyn,; žalią mygtuką su brūkšneliu, jei norite nutolinti; arba žalių rodyklių gretimoms žemėlapius.


METAR-TAF: